McDonald, Kansas
Current Conditions -  °F | °C
As of 2:35 AM on Sunday 21 Dec 2014 (Local Time) from KSYF Reporting Station
Scattered Clouds Scattered Clouds  
Wind Chill: 28°   Ceiling: Unl
Heat Index: 34°   Visibility: 10mi
Dew Point: 29°   Wind: 6mph
Humidity: 82%   Direction: 220°SW
Pressure: 29.86"   Gusts: NA
Location:  39.79°N, 101.38°W
Report Text: KSYF 210835Z AUTO 22005KT 10SM SCT110 01/M02 A2986 RMK AO2 T00091018
Loading
Personal Weather Stations






























Interactive Weather Map New forecast layout! Learn more

10-Day Weather Forecast

Advertisements
Track Severe Weather on mobile